sensor_id;sensor_type;location;lat;lon;timestamp;pressure;altitude;pressure_sealevel;temperature;humidity
62976;BME280;49071;0.000;0.000;2023-07-16T06:04:10;100571.28;;;25.30;
62976;BME280;49071;0.000;0.000;2023-07-16T06:07:12;100574.75;;;25.31;
62976;BME280;49071;0.000;0.000;2023-07-16T06:10:12;100576.91;;;25.35;
62976;BME280;49071;0.000;0.000;2023-07-16T06:13:13;100567.97;;;25.36;
62976;BME280;49071;0.000;0.000;2023-07-16T06:16:13;100564.97;;;25.39;
62976;BME280;49071;0.000;0.000;2023-07-16T06:19:13;100567.97;;;25.44;
62976;BME280;49071;0.000;0.000;2023-07-16T06:22:14;100567.78;;;25.45;
62976;BME280;49071;0.000;0.000;2023-07-16T06:25:14;100568.59;;;25.46;
62976;BME280;49071;0.000;0.000;2023-07-16T06:28:14;100585.84;;;25.50;
62976;BME280;49071;0.000;0.000;2023-07-16T06:31:17;100593.97;;;25.48;
62976;BME280;49071;0.000;0.000;2023-07-16T06:34:18;100594.13;;;25.47;
62976;BME280;49071;0.000;0.000;2023-07-16T06:37:18;100590.81;;;25.45;
62976;BME280;49071;0.000;0.000;2023-07-16T06:40:18;100593.44;;;25.45;
62976;BME280;49071;0.000;0.000;2023-07-16T06:43:18;100604.38;;;25.50;
62976;BME280;49071;0.000;0.000;2023-07-16T06:46:19;100614.34;;;25.48;
62976;BME280;49071;0.000;0.000;2023-07-16T06:49:19;100621.44;;;25.55;
62976;BME280;49071;0.000;0.000;2023-07-16T06:52:20;100638.16;;;25.56;
62976;BME280;49071;0.000;0.000;2023-07-16T06:55:20;100649.59;;;25.56;
62976;BME280;49071;0.000;0.000;2023-07-16T06:58:23;100651.41;;;25.56;
62976;BME280;49071;0.000;0.000;2023-07-16T07:01:23;100625.59;;;25.58;
62976;BME280;49071;0.000;0.000;2023-07-16T07:04:24;100631.22;;;25.55;
62976;BME280;49071;0.000;0.000;2023-07-16T07:07:24;100636.84;;;25.60;
62976;BME280;49071;0.000;0.000;2023-07-16T07:10:24;100639.16;;;25.63;
62976;BME280;49071;0.000;0.000;2023-07-16T07:13:24;100632.84;;;25.64;
62976;BME280;49071;0.000;0.000;2023-07-16T07:16:25;100642.44;;;25.65;
62976;BME280;49071;0.000;0.000;2023-07-16T07:19:25;100640.47;;;25.67;
62976;BME280;49071;0.000;0.000;2023-07-16T07:22:25;100638.84;;;25.66;
62976;BME280;49071;0.000;0.000;2023-07-16T07:25:25;100645.78;;;25.67;
62976;BME280;49071;0.000;0.000;2023-07-16T07:28:26;100649.09;;;25.69;
62976;BME280;49071;0.000;0.000;2023-07-16T07:31:27;100666.63;;;25.70;
62976;BME280;49071;0.000;0.000;2023-07-16T07:34:27;100675.25;;;25.72;
62976;BME280;49071;0.000;0.000;2023-07-16T07:37:27;100668.78;;;25.74;
62976;BME280;49071;0.000;0.000;2023-07-16T07:40:27;100669.63;;;25.74;
62976;BME280;49071;0.000;0.000;2023-07-16T07:43:27;100665.16;;;25.75;
62976;BME280;49071;0.000;0.000;2023-07-16T07:46:27;100673.25;;;25.73;
62976;BME280;49071;0.000;0.000;2023-07-16T07:49:28;100676.91;;;25.73;
62976;BME280;49071;0.000;0.000;2023-07-16T07:52:28;100673.25;;;25.73;
62976;BME280;49071;0.000;0.000;2023-07-16T07:55:28;100672.09;;;25.76;
62976;BME280;49071;0.000;0.000;2023-07-16T07:58:28;100669.25;;;25.77;
62976;BME280;49071;0.000;0.000;2023-07-16T08:01:29;100675.41;;;25.78;
62976;BME280;49071;0.000;0.000;2023-07-16T08:04:29;100669.25;;;25.77;
62976;BME280;49071;0.000;0.000;2023-07-16T08:07:32;100665.63;;;25.78;
62976;BME280;49071;0.000;0.000;2023-07-16T08:10:32;100675.09;;;25.81;
62976;BME280;49071;0.000;0.000;2023-07-16T08:13:32;100689.97;;;25.82;
62976;BME280;49071;0.000;0.000;2023-07-16T08:16:32;100689.97;;;25.82;
62976;BME280;49071;0.000;0.000;2023-07-16T08:19:32;100685.50;;;25.82;
62976;BME280;49071;0.000;0.000;2023-07-16T08:22:32;100683.53;;;25.84;
62976;BME280;49071;0.000;0.000;2023-07-16T08:25:33;100674.75;;;25.84;
62976;BME280;49071;0.000;0.000;2023-07-16T08:28:33;100678.38;;;25.83;
62976;BME280;49071;0.000;0.000;2023-07-16T08:31:33;100679.03;;;25.85;
62976;BME280;49071;0.000;0.000;2023-07-16T08:34:33;100680.69;;;25.86;
62976;BME280;49071;0.000;0.000;2023-07-16T08:37:33;100684.16;;;25.86;
62976;BME280;49071;0.000;0.000;2023-07-16T08:40:34;100682.34;;;25.87;
62976;BME280;49071;0.000;0.000;2023-07-16T08:43:34;100680.53;;;25.87;
62976;BME280;49071;0.000;0.000;2023-07-16T08:46:34;100679.38;;;25.90;
62976;BME280;49071;0.000;0.000;2023-07-16T08:49:34;100685.50;;;25.90;
62976;BME280;49071;0.000;0.000;2023-07-16T08:52:35;100682.03;;;25.90;
62976;BME280;49071;0.000;0.000;2023-07-16T08:55:35;100680.19;;;25.90;
62976;BME280;49071;0.000;0.000;2023-07-16T08:58:36;100684.69;;;25.90;
62976;BME280;49071;0.000;0.000;2023-07-16T09:01:37;100695.28;;;25.90;
62976;BME280;49071;0.000;0.000;2023-07-16T09:04:37;100696.09;;;25.90;
62976;BME280;49071;0.000;0.000;2023-07-16T09:07:38;100701.41;;;25.90;
62976;BME280;49071;0.000;0.000;2023-07-16T09:10:39;100703.03;;;25.91;
62976;BME280;49071;0.000;0.000;2023-07-16T09:13:45;100705.69;;;25.91;
62976;BME280;49071;0.000;0.000;2023-07-16T09:16:49;100702.03;;;25.92;
62976;BME280;49071;0.000;0.000;2023-07-16T09:19:52;100710.00;;;25.92;
62976;BME280;49071;0.000;0.000;2023-07-16T09:22:53;100704.69;;;25.92;
62976;BME280;49071;0.000;0.000;2023-07-16T09:25:55;100707.34;;;25.92;
62976;BME280;49071;0.000;0.000;2023-07-16T09:28:55;100711.66;;;25.93;
62976;BME280;49071;0.000;0.000;2023-07-16T09:31:59;100707.19;;;25.94;
62976;BME280;49071;0.000;0.000;2023-07-16T09:34:59;100702.72;;;25.94;
62976;BME280;49071;0.000;0.000;2023-07-16T09:37:59;100705.38;;;25.94;
62976;BME280;49071;0.000;0.000;2023-07-16T09:41:00;100695.44;;;25.96;
62976;BME280;49071;0.000;0.000;2023-07-16T09:44:02;100702.38;;;25.97;
62976;BME280;49071;0.000;0.000;2023-07-16T09:47:03;100718.28;;;25.97;
62976;BME280;49071;0.000;0.000;2023-07-16T09:50:03;100710.34;;;25.97;
62976;BME280;49071;0.000;0.000;2023-07-16T09:53:06;100711.16;;;25.98;
62976;BME280;49071;0.000;0.000;2023-07-16T09:56:08;100704.22;;;25.97;
62976;BME280;49071;0.000;0.000;2023-07-16T09:59:11;100707.69;;;25.97;
62976;BME280;49071;0.000;0.000;2023-07-16T10:02:12;100702.38;;;25.97;
62976;BME280;49071;0.000;0.000;2023-07-16T10:05:16;100703.19;;;25.98;
62976;BME280;49071;0.000;0.000;2023-07-16T10:08:17;100704.03;;;25.98;
62976;BME280;49071;0.000;0.000;2023-07-16T10:11:18;100702.38;;;25.97;
62976;BME280;49071;0.000;0.000;2023-07-16T10:14:24;100702.38;;;25.97;
62976;BME280;49071;0.000;0.000;2023-07-16T10:17:25;100702.19;;;25.99;
62976;BME280;49071;0.000;0.000;2023-07-16T10:20:35;100697.75;;;25.99;
62976;BME280;49071;0.000;0.000;2023-07-16T10:23:43;100697.75;;;25.99;
62976;BME280;49071;0.000;0.000;2023-07-16T10:26:44;100700.41;;;25.99;
62976;BME280;49071;0.000;0.000;2023-07-16T10:29:44;100695.09;;;25.99;
62976;BME280;49071;0.000;0.000;2023-07-16T10:32:44;100680.84;;;26.00;
62976;BME280;49071;0.000;0.000;2023-07-16T10:35:45;100698.38;;;26.01;
62976;BME280;49071;0.000;0.000;2023-07-16T10:38:45;100691.44;;;26.00;
62976;BME280;49071;0.000;0.000;2023-07-16T10:41:45;100693.09;;;26.01;
62976;BME280;49071;0.000;0.000;2023-07-16T10:44:48;100701.84;;;26.02;
62976;BME280;49071;0.000;0.000;2023-07-16T10:47:54;100709.00;;;26.01;
62976;BME280;49071;0.000;0.000;2023-07-16T10:50:55;100709.81;;;26.02;
62976;BME280;49071;0.000;0.000;2023-07-16T10:53:55;100703.34;;;26.04;
62976;BME280;49071;0.000;0.000;2023-07-16T10:56:56;100712.78;;;26.06;
62976;BME280;49071;0.000;0.000;2023-07-16T10:59:57;100721.13;;;26.11;
62976;BME280;49071;0.000;0.000;2023-07-16T11:02:58;100721.75;;;26.13;
62976;BME280;49071;0.000;0.000;2023-07-16T11:05:58;100718.47;;;26.11;
62976;BME280;49071;0.000;0.000;2023-07-16T11:09:05;100723.06;;;26.09;
62976;BME280;49071;0.000;0.000;2023-07-16T11:12:06;100723.25;;;26.16;
62976;BME280;49071;0.000;0.000;2023-07-16T11:15:07;100708.63;;;26.28;
62976;BME280;49071;0.000;0.000;2023-07-16T11:18:07;100712.59;;;26.39;
62976;BME280;49071;0.000;0.000;2023-07-16T11:21:07;100730.13;;;26.48;
62976;BME280;49071;0.000;0.000;2023-07-16T11:24:11;100728.78;;;26.52;
62976;BME280;49071;0.000;0.000;2023-07-16T11:27:13;100735.22;;;26.58;
62976;BME280;49071;0.000;0.000;2023-07-16T11:30:14;100739.84;;;26.63;
62976;BME280;49071;0.000;0.000;2023-07-16T11:33:14;100715.63;;;26.66;
62976;BME280;49071;0.000;0.000;2023-07-16T11:36:16;100739.34;;;26.68;
62976;BME280;49071;0.000;0.000;2023-07-16T11:39:16;100740.66;;;26.72;
62976;BME280;49071;0.000;0.000;2023-07-16T11:42:50;100728.38;;;26.79;
62976;BME280;49071;0.000;0.000;2023-07-16T11:45:46;100733.34;;;26.82;
62976;BME280;49071;0.000;0.000;2023-07-16T11:48:47;100734.16;;;26.82;
62976;BME280;49071;0.000;0.000;2023-07-16T11:51:47;100729.50;;;26.84;
62976;BME280;49071;0.000;0.000;2023-07-16T11:54:47;100725.66;;;26.87;
62976;BME280;49071;0.000;0.000;2023-07-16T11:57:48;100728.16;;;26.88;
62976;BME280;49071;0.000;0.000;2023-07-16T12:00:48;100735.25;;;26.95;
62976;BME280;49071;0.000;0.000;2023-07-16T12:03:50;100724.00;;;26.93;
62976;BME280;49071;0.000;0.000;2023-07-16T12:06:51;100728.16;;;26.88;
62976;BME280;49071;0.000;0.000;2023-07-16T12:09:51;100721.19;;;26.87;
62976;BME280;49071;0.000;0.000;2023-07-16T12:12:51;100733.63;;;26.87;
62976;BME280;49071;0.000;0.000;2023-07-16T12:15:51;100728.66;;;26.84;
62976;BME280;49071;0.000;0.000;2023-07-16T12:18:51;100736.97;;;26.81;
62976;BME280;49071;0.000;0.000;2023-07-16T12:21:51;100731.03;;;26.79;
62976;BME280;49071;0.000;0.000;2023-07-16T12:24:52;100728.53;;;26.77;
62976;BME280;49071;0.000;0.000;2023-07-16T12:27:52;100725.06;;;26.77;
62976;BME280;49071;0.000;0.000;2023-07-16T12:30:52;100731.03;;;26.79;
62976;BME280;49071;0.000;0.000;2023-07-16T12:33:52;100739.63;;;26.81;
62976;BME280;49071;0.000;0.000;2023-07-16T12:36:52;100739.50;;;26.74;
62976;BME280;49071;0.000;0.000;2023-07-16T12:39:54;100742.81;;;26.68;
62976;BME280;49071;0.000;0.000;2023-07-16T12:42:54;100742.31;;;26.65;
62976;BME280;49071;0.000;0.000;2023-07-16T12:45:54;100736.53;;;26.61;
62976;BME280;49071;0.000;0.000;2023-07-16T12:48:54;100745.03;;;26.57;
62976;BME280;49071;0.000;0.000;2023-07-16T12:51:54;100740.06;;;26.54;
62976;BME280;49071;0.000;0.000;2023-07-16T12:54:55;100743.69;;;26.53;
62976;BME280;49071;0.000;0.000;2023-07-16T12:57:55;100743.06;;;26.51;
62976;BME280;49071;0.000;0.000;2023-07-16T13:00:55;100733.41;;;26.50;
62976;BME280;49071;0.000;0.000;2023-07-16T13:03:55;100742.38;;;26.49;
62976;BME280;49071;0.000;0.000;2023-07-16T13:06:55;100741.56;;;26.49;
62976;BME280;49071;0.000;0.000;2023-07-16T13:09:55;100748.69;;;26.48;
62976;BME280;49071;0.000;0.000;2023-07-16T13:12:56;100749.69;;;26.47;
62976;BME280;49071;0.000;0.000;2023-07-16T13:15:56;100735.78;;;26.45;
62976;BME280;49071;0.000;0.000;2023-07-16T13:18:57;100748.03;;;26.46;
62976;BME280;49071;0.000;0.000;2023-07-16T13:21:57;100747.22;;;26.46;
62976;BME280;49071;0.000;0.000;2023-07-16T13:24:57;100750.03;;;26.44;
62976;BME280;49071;0.000;0.000;2023-07-16T13:27:57;100753.53;;;26.45;
62976;BME280;49071;0.000;0.000;2023-07-16T13:30:57;100754.50;;;26.44;
62976;BME280;49071;0.000;0.000;2023-07-16T13:33:58;100753.88;;;26.42;
62976;BME280;49071;0.000;0.000;2023-07-16T13:36:58;100752.03;;;26.42;
62976;BME280;49071;0.000;0.000;2023-07-16T13:39:58;100760.00;;;26.42;
62976;BME280;49071;0.000;0.000;2023-07-16T13:42:58;100760.00;;;26.42;
62976;BME280;49071;0.000;0.000;2023-07-16T13:45:59;100766.28;;;26.41;
62976;BME280;49071;0.000;0.000;2023-07-16T13:48:59;100775.09;;;26.42;
62976;BME280;49071;0.000;0.000;2023-07-16T13:52:00;100771.59;;;26.41;
62976;BME280;49071;0.000;0.000;2023-07-16T13:55:00;100776.88;;;26.41;
62976;BME280;49071;0.000;0.000;2023-07-16T13:58:00;100776.88;;;26.41;
62976;BME280;49071;0.000;0.000;2023-07-16T14:01:00;100779.53;;;26.41;
62976;BME280;49071;0.000;0.000;2023-07-16T14:04:00;100784.84;;;26.41;
62976;BME280;49071;0.000;0.000;2023-07-16T14:07:00;100776.88;;;26.41;
62976;BME280;49071;0.000;0.000;2023-07-16T14:10:01;100781.38;;;26.41;
62976;BME280;49071;0.000;0.000;2023-07-16T14:13:01;100792.81;;;26.41;
62976;BME280;49071;0.000;0.000;2023-07-16T14:16:01;100776.06;;;26.41;
62976;BME280;49071;0.000;0.000;2023-07-16T14:19:03;100779.53;;;26.41;
62976;BME280;49071;0.000;0.000;2023-07-16T14:22:03;100770.75;;;26.41;
62976;BME280;49071;0.000;0.000;2023-07-16T14:25:04;100778.72;;;26.41;
62976;BME280;49071;0.000;0.000;2023-07-16T14:28:04;100787.50;;;26.41;
62976;BME280;49071;0.000;0.000;2023-07-16T14:31:04;100787.50;;;26.41;
62976;BME280;49071;0.000;0.000;2023-07-16T14:34:05;100784.03;;;26.41;
62976;BME280;49071;0.000;0.000;2023-07-16T14:37:05;100792.81;;;26.41;
62976;BME280;49071;0.000;0.000;2023-07-16T14:40:05;100780.53;;;26.40;
62976;BME280;49071;0.000;0.000;2023-07-16T14:43:07;100794.63;;;26.41;
62976;BME280;49071;0.000;0.000;2023-07-16T14:46:08;100787.50;;;26.41;
62976;BME280;49071;0.000;0.000;2023-07-16T14:49:09;100774.22;;;26.41;
62976;BME280;49071;0.000;0.000;2023-07-16T14:52:09;100783.88;;;26.42;
62976;BME280;49071;0.000;0.000;2023-07-16T14:55:09;100792.47;;;26.44;
62976;BME280;49071;0.000;0.000;2023-07-16T14:58:09;100777.41;;;26.45;
62976;BME280;49071;0.000;0.000;2023-07-16T15:01:09;100790.47;;;26.46;
62976;BME280;49071;0.000;0.000;2023-07-16T15:04:10;100792.13;;;26.47;
62976;BME280;49071;0.000;0.000;2023-07-16T15:07:10;100783.53;;;26.45;
62976;BME280;49071;0.000;0.000;2023-07-16T15:10:10;100782.53;;;26.46;
62976;BME280;49071;0.000;0.000;2023-07-16T15:13:10;100778.88;;;26.47;
62976;BME280;49071;0.000;0.000;2023-07-16T15:16:12;100776.22;;;26.47;
62976;BME280;49071;0.000;0.000;2023-07-16T15:19:12;100778.88;;;26.47;
62976;BME280;49071;0.000;0.000;2023-07-16T15:22:12;100774.22;;;26.49;
62976;BME280;49071;0.000;0.000;2023-07-16T15:25:15;100782.19;;;26.49;
62976;BME280;49071;0.000;0.000;2023-07-16T15:28:16;100775.72;;;26.52;
62976;BME280;49071;0.000;0.000;2023-07-16T15:31:16;100784.16;;;26.55;
62976;BME280;49071;0.000;0.000;2023-07-16T15:34:16;100774.13;;;26.27;
62976;BME280;49071;0.000;0.000;2023-07-16T15:37:16;100786.53;;;26.03;
62976;BME280;49071;0.000;0.000;2023-07-16T15:40:17;100776.28;;;25.84;
62976;BME280;49071;0.000;0.000;2023-07-16T15:43:17;100780.56;;;25.70;
62976;BME280;49071;0.000;0.000;2023-07-16T15:46:17;100779.59;;;25.63;
62976;BME280;49071;0.000;0.000;2023-07-16T15:49:18;100781.91;;;25.66;
62976;BME280;49071;0.000;0.000;2023-07-16T15:52:19;100782.56;;;25.60;
62976;BME280;49071;0.000;0.000;2023-07-16T15:55:19;100785.38;;;25.58;
62976;BME280;49071;0.000;0.000;2023-07-16T15:58:19;100782.41;;;25.53;
62976;BME280;49071;0.000;0.000;2023-07-16T16:01:19;100782.88;;;25.49;
62976;BME280;49071;0.000;0.000;2023-07-16T16:04:20;100782.88;;;25.49;
62976;BME280;49071;0.000;0.000;2023-07-16T16:07:20;100785.53;;;25.65;
62976;BME280;49071;0.000;0.000;2023-07-16T16:10:20;100779.91;;;25.91;
62976;BME280;49071;0.000;0.000;2023-07-16T16:13:21;100790.22;;;26.10;
62976;BME280;49071;0.000;0.000;2023-07-16T16:16:22;100777.59;;;26.20;
62976;BME280;49071;0.000;0.000;2023-07-16T16:19:23;100787.06;;;25.91;
62976;BME280;49071;0.000;0.000;2023-07-16T16:22:24;100787.53;;;25.63;
62976;BME280;49071;0.000;0.000;2023-07-16T16:25:29;100787.53;;;25.55;
62976;BME280;49071;0.000;0.000;2023-07-16T16:28:30;100785.81;;;25.46;
62976;BME280;49071;0.000;0.000;2023-07-16T16:31:30;100797.38;;;25.37;
62976;BME280;49071;0.000;0.000;2023-07-16T16:34:30;100794.78;;;25.53;
62976;BME280;49071;0.000;0.000;2023-07-16T16:37:31;100797.75;;;25.50;
62976;BME280;49071;0.000;0.000;2023-07-16T16:40:31;100805.00;;;25.40;
62976;BME280;49071;0.000;0.000;2023-07-16T16:43:31;100803.22;;;25.48;
62976;BME280;49071;0.000;0.000;2023-07-16T16:46:31;100794.63;;;25.54;
62976;BME280;49071;0.000;0.000;2023-07-16T16:49:32;100803.22;;;25.48;
62976;BME280;49071;0.000;0.000;2023-07-16T16:52:33;100804.03;;;25.41;
62976;BME280;49071;0.000;0.000;2023-07-16T16:55:35;100796.72;;;25.43;
62976;BME280;49071;0.000;0.000;2023-07-16T16:58:35;100801.38;;;25.41;
62976;BME280;49071;0.000;0.000;2023-07-16T17:01:35;100806.66;;;25.33;
62976;BME280;49071;0.000;0.000;2023-07-16T17:04:36;100795.88;;;25.35;
62976;BME280;49071;0.000;0.000;2023-07-16T17:07:37;100808.28;;;25.34;
62976;BME280;49071;0.000;0.000;2023-07-16T17:10:37;100808.47;;;25.41;
62976;BME280;49071;0.000;0.000;2023-07-16T17:13:37;100806.00;;;25.39;
62976;BME280;49071;0.000;0.000;2023-07-16T17:16:37;100816.56;;;25.31;
62976;BME280;49071;0.000;0.000;2023-07-16T17:19:37;100816.09;;;25.43;
62976;BME280;49071;0.000;0.000;2023-07-16T17:22:39;100821.53;;;25.34;
62976;BME280;49071;0.000;0.000;2023-07-16T17:25:39;100815.34;;;25.51;
62976;BME280;49071;0.000;0.000;2023-07-16T17:28:40;100810.66;;;25.45;
62976;BME280;49071;0.000;0.000;2023-07-16T17:31:40;100823.88;;;25.37;
62976;BME280;49071;0.000;0.000;2023-07-16T17:34:40;100822.91;;;25.46;
62976;BME280;49071;0.000;0.000;2023-07-16T17:37:41;100815.69;;;25.79;
62976;BME280;49071;0.000;0.000;2023-07-16T17:40:41;100819.38;;;26.02;
62976;BME280;49071;0.000;0.000;2023-07-16T17:43:41;100829.31;;;26.16;
62976;BME280;49071;0.000;0.000;2023-07-16T17:46:41;100823.34;;;26.22;
62976;BME280;49071;0.000;0.000;2023-07-16T17:49:42;100816.72;;;26.26;
62976;BME280;49071;0.000;0.000;2023-07-16T17:52:42;100821.53;;;26.30;
62976;BME280;49071;0.000;0.000;2023-07-16T17:55:42;100818.53;;;26.33;
62976;BME280;49071;0.000;0.000;2023-07-16T17:58:43;100822.03;;;26.33;
62976;BME280;49071;0.000;0.000;2023-07-16T18:01:43;100819.88;;;26.13;
62976;BME280;49071;0.000;0.000;2023-07-16T18:04:43;100824.97;;;25.83;
62976;BME280;49071;0.000;0.000;2023-07-16T18:07:43;100829.59;;;25.66;
62976;BME280;49071;0.000;0.000;2023-07-16T18:10:43;100831.41;;;25.57;
62976;BME280;49071;0.000;0.000;2023-07-16T18:13:44;100833.56;;;25.54;
62976;BME280;49071;0.000;0.000;2023-07-16T18:16:44;100832.19;;;25.50;
62976;BME280;49071;0.000;0.000;2023-07-16T18:19:44;100840.63;;;25.45;
62976;BME280;49071;0.000;0.000;2023-07-16T18:22:44;100831.81;;;25.37;
62976;BME280;49071;0.000;0.000;2023-07-16T18:25:44;100841.53;;;25.70;
62976;BME280;49071;0.000;0.000;2023-07-16T18:28:44;100839.22;;;25.98;
62976;BME280;49071;0.000;0.000;2023-07-16T18:31:45;100841.75;;;26.15;
62976;BME280;49071;0.000;0.000;2023-07-16T18:34:45;100840.91;;;26.23;
62976;BME280;49071;0.000;0.000;2023-07-16T18:37:45;100839.44;;;26.28;
62976;BME280;49071;0.000;0.000;2023-07-16T18:40:45;100832.97;;;26.31;
62976;BME280;49071;0.000;0.000;2023-07-16T18:43:46;100836.91;;;25.95;
62976;BME280;49071;0.000;0.000;2023-07-16T18:46:46;100848.47;;;25.71;
62976;BME280;49071;0.000;0.000;2023-07-16T18:49:46;100856.56;;;25.53;
62976;BME280;49071;0.000;0.000;2023-07-16T18:52:46;100863.34;;;25.48;
62976;BME280;49071;0.000;0.000;2023-07-16T18:55:46;100856.03;;;25.50;
62976;BME280;49071;0.000;0.000;2023-07-16T18:58:47;100863.47;;;25.46;
62976;BME280;49071;0.000;0.000;2023-07-16T19:01:47;100862.44;;;25.40;
62976;BME280;49071;0.000;0.000;2023-07-16T19:04:47;100864.38;;;25.71;
62976;BME280;49071;0.000;0.000;2023-07-16T19:07:47;100860.44;;;25.98;
62976;BME280;49071;0.000;0.000;2023-07-16T19:10:47;100857.81;;;26.14;
62976;BME280;49071;0.000;0.000;2023-07-16T19:13:48;100871.75;;;26.24;
62976;BME280;49071;0.000;0.000;2023-07-16T19:16:48;100875.72;;;26.28;
62976;BME280;49071;0.000;0.000;2023-07-16T19:19:48;100870.44;;;26.28;
62976;BME280;49071;0.000;0.000;2023-07-16T19:22:48;100871.06;;;25.90;
62976;BME280;49071;0.000;0.000;2023-07-16T19:25:48;100883.09;;;25.69;
62976;BME280;49071;0.000;0.000;2023-07-16T19:28:48;100888.22;;;25.63;
62976;BME280;49071;0.000;0.000;2023-07-16T19:31:49;100892.81;;;25.53;
62976;BME280;49071;0.000;0.000;2023-07-16T19:34:49;100886.19;;;25.49;
62976;BME280;49071;0.000;0.000;2023-07-16T19:37:51;100897.38;;;25.43;
62976;BME280;49071;0.000;0.000;2023-07-16T19:40:51;100888.78;;;25.41;
62976;BME280;49071;0.000;0.000;2023-07-16T19:43:51;100894.41;;;25.38;
62976;BME280;49071;0.000;0.000;2023-07-16T19:46:52;100899.38;;;25.41;
62976;BME280;49071;0.000;0.000;2023-07-16T19:49:52;100890.72;;;25.31;
62976;BME280;49071;0.000;0.000;2023-07-16T19:52:53;100893.19;;;25.66;
62976;BME280;49071;0.000;0.000;2023-07-16T19:55:57;100887.94;;;25.81;
